Solana — WCY5602 — position and weather

sailwx.info

Track history (hours):
 
Tides and Currents Weather Stations Pressure Air Temp Water Temp Dewpoint Dewpoint Depression Visibility Wind Speed Wind Dir Waves Ship Positions

Solana

Owner: TAURUS MARINE, SAN FRANCISCO, CA. More information available from US FCC via Universal Licensing System and Coast Guard Vessel Documentation Center.

Last reported at 2015-Mar-28 10:33 UTC. Time now 2015-Mar-28 11:05 UTC.
Position N 47°39' W 122°20'.

Type: Towing. MMSI: 366969740.

Date/timePositionNaut miles runAvg speedWind from/ knotsBaromVisibWave heightAir tempDewpointWater temp
2015-Mar-28 10:33N 47°39' W 122°20'0 0.0
2015-Mar-28 10:30N 47°39' W 122°20'0 0.0
2015-Mar-28 09:33N 47°39' W 122°20'0 0.0
2015-Mar-28 09:30N 47°39' W 122°20'0 0.0
2015-Mar-28 08:33N 47°39' W 122°20'0 0.0
2015-Mar-28 08:30N 47°39' W 122°20'0 0.0
2015-Mar-28 07:33N 47°39' W 122°20'0 0.0
2015-Mar-28 07:30N 47°39' W 122°20'0 0.0
2015-Mar-28 06:44N 47°39' W 122°20'0 0.0
2015-Mar-28 06:33N 47°39' W 122°20'0 0.0
2015-Mar-28 05:27N 47°39' W 122°20'0 0.0
2015-Mar-28 04:38N 47°39' W 122°20'0 0.0
2015-Mar-28 04:33N 47°39' W 122°20'0 0.0
2015-Mar-28 04:33N 47°39' W 122°20'0 0.0
2015-Mar-28 03:33N 47°39' W 122°20'0 0.0
2015-Mar-28 03:32N 47°39' W 122°20'0 0.0
2015-Mar-28 02:33N 47°39' W 122°20'0 0.0
2015-Mar-28 02:32N 47°39' W 122°20'0 0.0
2015-Mar-28 01:33N 47°39' W 122°20'0 0.0
2015-Mar-28 01:32N 47°39' W 122°20'0 0.0
2015-Mar-28 00:33N 47°39' W 122°20'0 0.0
2015-Mar-28 00:32N 47°39' W 122°20'3 2.7
2015-Mar-27 23:33N 47°39' W 122°16'0 3.1
2015-Mar-27 23:32N 47°39' W 122°16'1 1.2
2015-Mar-27 22:32N 47°38' W 122°15'0 0.0
2015-Mar-27 22:32N 47°38' W 122°15'0 0.2
2015-Mar-27 21:33N 47°38' W 122°15'0 0.0
2015-Mar-27 21:32N 47°38' W 122°15'1 1.0
2015-Mar-27 20:31N 47°39' W 122°16'0 0.0
2015-Mar-27 19:40N 47°39' W 122°16'0 0.0
2015-Mar-27 19:30N 47°39' W 122°16'1 3.0
2015-Mar-27 19:03N 47°40' W 122°15'4 8.3
2015-Mar-27 18:33N 47°44' W 122°16'1 6.0
2015-Mar-27 18:28N 47°45' W 122°16'2 2.3
2015-Mar-27 17:33N 47°42' W 122°16'4 8.0
2015-Mar-27 17:05N 47°39' W 122°15'0 0.5
2015-Mar-27 16:33N 47°39' W 122°15'0 0.9
2015-Mar-27 16:30N 47°39' W 122°15'0 0.5
2015-Mar-27 15:33N 47°39' W 122°16'0 0.3
2015-Mar-27 15:24N 47°39' W 122°16'2 2.7
2015-Mar-27 14:33N 47°41' W 122°14'0 8.9
2015-Mar-27 14:30N 47°41' W 122°14'4 4.5
2015-Mar-27 13:33N 47°45' W 122°16'0 3.7
2015-Mar-27 13:30N 47°45' W 122°16'0 0.4
2015-Mar-27 12:31N 47°45' W 122°15'0 0.0
2015-Mar-27 12:29N 47°45' W 122°15'2 2.4
2015-Mar-27 11:34N 47°43' W 122°16'0 6.7
2015-Mar-27 11:29N 47°43' W 122°16'4 4.4
2015-Mar-27 10:33N 47°39' W 122°16'0 5.9
2015-Mar-27 10:30N 47°39' W 122°16'3 2.9
2015-Mar-27 09:33N 47°39' W 122°20'0 0.0
2015-Mar-27 09:30N 47°39' W 122°20'0 0.0
2015-Mar-27 08:33N 47°39' W 122°20'0 0.0
2015-Mar-27 08:30N 47°39' W 122°20'0 0.0
2015-Mar-27 07:33N 47°39' W 122°20'0 0.0
2015-Mar-27 07:30N 47°39' W 122°20'0 0.0
2015-Mar-27 06:31N 47°39' W 122°20'0 0.0
2015-Mar-27 05:31N 47°39' W 122°20'0 0.0
2015-Mar-27 05:15N 47°39' W 122°20'0 0.0
2015-Mar-27 04:33N 47°39' W 122°20'0 0.0
2015-Mar-27 04:30N 47°39' W 122°20'0 0.0
2015-Mar-27 03:33N 47°39' W 122°20'0 0.0
2015-Mar-27 03:30N 47°39' W 122°20'0 0.0
2015-Mar-27 02:33N 47°39' W 122°20'0 0.1
2015-Mar-27 02:30N 47°39' W 122°20'0 0.0
2015-Mar-27 01:33N 47°39' W 122°20'0 0.0
2015-Mar-27 01:30N 47°39' W 122°20'0 0.0
2015-Mar-27 00:33N 47°39' W 122°20'0 0.0
2015-Mar-27 00:30N 47°39' W 122°20'0 0.0
2015-Mar-26 23:34N 47°39' W 122°20'0 0.0
2015-Mar-26 23:30N 47°39' W 122°20'0 0.0
2015-Mar-26 22:33N 47°39' W 122°20'0 0.0
2015-Mar-26 22:29N 47°39' W 122°20'0 0.0
2015-Mar-26 21:33N 47°39' W 122°20'0 0.0
2015-Mar-26 21:29N 47°39' W 122°20'0 0.0
2015-Mar-26 20:33N 47°39' W 122°20'0 0.0
2015-Mar-26 20:29N 47°39' W 122°20'0 0.0
2015-Mar-26 19:32N 47°39' W 122°20'0 0.0
2015-Mar-26 19:22N 47°39' W 122°20'0 0.0
2015-Mar-26 18:29N 47°39' W 122°20'0 0.0
2015-Mar-26 17:39N 47°39' W 122°20'0 0.1
2015-Mar-26 17:33N 47°39' W 122°20'0 0.0
2015-Mar-26 17:13N 47°39' W 122°20'0 0.0
2015-Mar-26 16:08N 47°39' W 122°20'0 0.0
2015-Mar-26 15:46N 47°39' W 122°20'0 0.0
2015-Mar-26 15:33N 47°39' W 122°20'0 0.0
2015-Mar-26 15:31N 47°39' W 122°20'0 0.0
2015-Mar-26 14:33N 47°39' W 122°20'0 0.0
2015-Mar-26 14:31N 47°39' W 122°20'0 0.0
2015-Mar-26 13:33N 47°39' W 122°20'0 0.0
2015-Mar-26 13:31N 47°39' W 122°20'0 0.0
2015-Mar-26 12:33N 47°39' W 122°20'0 0.0
2015-Mar-26 12:31N 47°39' W 122°20'0 0.0
2015-Mar-26 11:33N 47°39' W 122°20'0 0.0
2015-Mar-26 11:31N 47°39' W 122°20'0 0.0
2015-Mar-26 10:33N 47°39' W 122°20'0 0.0
2015-Mar-26 10:31N 47°39' W 122°20'0 0.0
2015-Mar-26 09:33N 47°39' W 122°20'0 0.0
2015-Mar-26 09:31N 47°39' W 122°20'0 0.0
2015-Mar-26 08:33N 47°39' W 122°20'0 0.0
2015-Mar-26 08:30N 47°39' W 122°20'0 0.0
2015-Mar-26 07:33N 47°39' W 122°20'0 0.0
2015-Mar-26 07:30N 47°39' W 122°20'0 0.0
2015-Mar-26 06:33N 47°39' W 122°20'0 0.0
2015-Mar-26 06:30N 47°39' W 122°20'0 0.0
2015-Mar-26 06:10N 47°39' W 122°20'0 0.0
2015-Mar-26 05:34N 47°39' W 122°20'0 0.0
2015-Mar-26 04:33N 47°39' W 122°20'0 0.0
2015-Mar-26 04:30N 47°39' W 122°20'0 0.0
2015-Mar-26 03:33N 47°39' W 122°20'0 0.0
2015-Mar-26 03:29N 47°39' W 122°20'0 0.0
2015-Mar-26 02:33N 47°39' W 122°20'0 0.0
2015-Mar-26 02:30N 47°39' W 122°20'0 0.0
2015-Mar-26 01:33N 47°39' W 122°20'0 0.1
2015-Mar-26 01:30N 47°39' W 122°20'0 0.0
2015-Mar-26 00:33N 47°39' W 122°20'0 0.0
2015-Mar-26 00:30N 47°39' W 122°20'0 0.0
2015-Mar-25 23:33N 47°39' W 122°20'0 0.0
2015-Mar-25 23:30N 47°39' W 122°20'0 0.0
2015-Mar-25 22:33N 47°39' W 122°20'0 0.0
2015-Mar-25 22:30N 47°39' W 122°20'0 0.0
2015-Mar-25 21:32N 47°39' W 122°20'0 0.0
2015-Mar-25 21:29N 47°39' W 122°20'0 0.0
2015-Mar-25 20:33N 47°39' W 122°20'0 0.0
2015-Mar-25 20:24N 47°39' W 122°20'0 0.0
2015-Mar-25 19:33N 47°39' W 122°20'0 0.0
2015-Mar-25 19:29N 47°39' W 122°20'0 0.0
2015-Mar-25 18:33N 47°39' W 122°20'0 0.0
2015-Mar-25 18:29N 47°39' W 122°20'0 0.0
2015-Mar-25 17:33N 47°39' W 122°20'0 0.1
2015-Mar-25 17:29N 47°39' W 122°20'0 0.0
2015-Mar-25 16:33N 47°39' W 122°20'0 0.1
2015-Mar-25 16:29N 47°39' W 122°20'0 0.0
2015-Mar-25 15:33N 47°39' W 122°20'0 0.0
2015-Mar-25 15:29N 47°39' W 122°20'0 0.0
2015-Mar-25 13:46N 47°39' W 122°20'0 0.0
2015-Mar-25 13:33N 47°39' W 122°20'0 0.0
2015-Mar-25 13:32N 47°39' W 122°20'0 0.0
2015-Mar-25 12:33N 47°39' W 122°20'0 0.0
2015-Mar-25 12:32N 47°39' W 122°20'0 0.0
2015-Mar-25 11:33N 47°39' W 122°20'0 0.0
2015-Mar-25 11:31N 47°39' W 122°20'0 0.0
2015-Mar-25 10:34N 47°39' W 122°20'0 0.0
2015-Mar-25 10:31N 47°39' W 122°20'0 0.0
2015-Mar-25 09:33N 47°39' W 122°20'0 0.0
2015-Mar-25 09:31N 47°39' W 122°20'0 0.0
2015-Mar-25 08:33N 47°39' W 122°20'0 0.0
2015-Mar-25 08:31N 47°39' W 122°20'0 0.0
2015-Mar-25 07:33N 47°39' W 122°20'0 0.0
2015-Mar-25 07:31N 47°39' W 122°20'0 0.0
2015-Mar-25 06:33N 47°39' W 122°20'0 0.0
2015-Mar-25 06:31N 47°39' W 122°20'0 0.0
2015-Mar-25 06:11N 47°39' W 122°20'0 0.0
2015-Mar-25 05:33N 47°39' W 122°20'0 0.0
2015-Mar-25 04:33N 47°39' W 122°20'0 0.0
2015-Mar-25 04:31N 47°39' W 122°20'0 0.0
2015-Mar-25 03:33N 47°39' W 122°20'0 0.0
2015-Mar-25 03:30N 47°39' W 122°20'0 0.0
2015-Mar-25 02:33N 47°39' W 122°20'0 0.0
2015-Mar-25 02:30N 47°39' W 122°20'0 0.0
2015-Mar-25 01:33N 47°39' W 122°20'0 0.0
2015-Mar-25 01:30N 47°39' W 122°20'0 0.0
2015-Mar-25 00:33N 47°39' W 122°20'0 0.0
2015-Mar-25 00:30N 47°39' W 122°20'0 0.0
2015-Mar-24 23:33N 47°39' W 122°20'0 0.0
2015-Mar-24 23:30N 47°39' W 122°20'0 0.0
2015-Mar-24 22:33N 47°39' W 122°20'0 0.0
2015-Mar-24 22:30N 47°39' W 122°20'0 0.0
2015-Mar-24 21:33N 47°39' W 122°20'0 0.0
2015-Mar-24 21:30N 47°39' W 122°20'0 0.0
2015-Mar-24 20:33N 47°39' W 122°20'0 0.0
2015-Mar-24 20:29N 47°39' W 122°20'0 0.0
2015-Mar-24 19:33N 47°39' W 122°20'0 0.0
2015-Mar-24 19:29N 47°39' W 122°20'0 0.0
2015-Mar-24 18:33N 47°39' W 122°20'0 0.0
2015-Mar-24 18:30N 47°39' W 122°20'0 0.0
2015-Mar-24 17:33N 47°39' W 122°20'0 0.1
2015-Mar-24 17:29N 47°39' W 122°20'0 0.0
2015-Mar-24 16:31N 47°39' W 122°20'0 0.0
2015-Mar-24 16:29N 47°39' W 122°20'0 0.0
2015-Mar-24 15:33N 47°39' W 122°20'0 0.0
2015-Mar-24 15:29N 47°39' W 122°20'0 0.0
2015-Mar-24 14:33N 47°39' W 122°20'0 0.0
2015-Mar-24 14:29N 47°39' W 122°20'0 0.0
2015-Mar-24 13:34N 47°39' W 122°20'0 0.0
2015-Mar-24 13:29N 47°39' W 122°20'0 0.0
2015-Mar-24 12:33N 47°39' W 122°20'0 0.0
2015-Mar-24 12:29N 47°39' W 122°20'0 0.0
2015-Mar-24 11:33N 47°39' W 122°20'0 0.0
2015-Mar-24 11:29N 47°39' W 122°20'0 0.0
2015-Mar-24 10:33N 47°39' W 122°20'0 0.0
2015-Mar-24 10:29N 47°39' W 122°20'0 0.0
2015-Mar-24 08:36N 47°39' W 122°20'0 0.0
2015-Mar-24 08:32N 47°39' W 122°20'0 0.0
2015-Mar-24 08:31N 47°39' W 122°20'0 0.0
2015-Mar-24 07:33N 47°39' W 122°20'0 0.0
2015-Mar-24 07:31N 47°39' W 122°20'0 0.0
2015-Mar-24 06:33N 47°39' W 122°20'0 0.2
2015-Mar-24 06:31N 47°39' W 122°20'0 0.0
2015-Mar-24 06:06N 47°39' W 122°20'0 0.0
2015-Mar-24 05:33N 47°39' W 122°20'0 0.0
2015-Mar-24 04:33N 47°39' W 122°20'0 0.0
2015-Mar-24 04:31N 47°39' W 122°20'0 0.0
2015-Mar-24 03:33N 47°39' W 122°20'0 0.0
2015-Mar-24 03:31N 47°39' W 122°20'0 0.0
2015-Mar-24 02:32N 47°39' W 122°20'0 0.0
2015-Mar-24 02:31N 47°39' W 122°20'0 0.0
2015-Mar-24 01:33N 47°39' W 122°20'0 0.0
2015-Mar-24 01:31N 47°39' W 122°20'0 0.0
2015-Mar-24 00:33N 47°39' W 122°20'0 0.0
2015-Mar-24 00:31N 47°39' W 122°20'0 0.0
2015-Mar-23 23:33N 47°39' W 122°20'0 0.0
2015-Mar-23 23:31N 47°39' W 122°20'0 0.0
2015-Mar-23 22:33N 47°39' W 122°20'0 0.0
2015-Mar-23 22:30N 47°39' W 122°20'3 3.3
2015-Mar-23 21:34N 47°39' W 122°16'0 0.3
2015-Mar-23 21:25N 47°39' W 122°16'0 0.0
2015-Mar-23 20:33N 47°38' W 122°16'0 0.0
2015-Mar-23 20:30N 47°38' W 122°16'0 0.1
2015-Mar-23 19:34N 47°39' W 122°16'0 0.3
2015-Mar-23 19:30N 47°39' W 122°16'0 0.1
2015-Mar-23 18:34N 47°39' W 122°16'0 0.5
2015-Mar-23 18:30N 47°39' W 122°16'0 0.4
2015-Mar-23 17:32N 47°39' W 122°16'0 0.1
2015-Mar-23 17:25N 47°39' W 122°16'0 0.5
2015-Mar-23 16:34N 47°39' W 122°16'0 0.1
2015-Mar-23 16:30N 47°39' W 122°16'0 0.0
2015-Mar-23 15:34N 47°38' W 122°16'0 0.1
2015-Mar-23 15:29N 47°38' W 122°16'1 0.8
2015-Mar-23 14:34N 47°38' W 122°15'0 0.1
2015-Mar-23 14:23N 47°38' W 122°15'1 0.8
2015-Mar-23 13:33N 47°39' W 122°16'0 1.4
2015-Mar-23 13:29N 47°39' W 122°16'1 0.6
2015-Mar-23 12:33N 47°38' W 122°15'0 0.6
2015-Mar-23 12:19N 47°38' W 122°15'3 4.4
2015-Mar-23 11:34N 47°39' W 122°20'0 3.6
2015-Mar-23 11:29N 47°39' W 122°20'0 0.1
2015-Mar-23 10:33N 47°39' W 122°20'0 0.0
2015-Mar-23 10:29N 47°39' W 122°20'0 0.0
2015-Mar-23 09:34N 47°39' W 122°20'0 0.0
2015-Mar-23 09:29N 47°39' W 122°20'0 0.0
2015-Mar-23 08:21N 47°39' W 122°20'0 0.0
2015-Mar-23 08:18N 47°39' W 122°20'0 0.0
2015-Mar-23 07:34N 47°39' W 122°20'0 0.0
2015-Mar-23 07:32N 47°39' W 122°20'0 0.0
2015-Mar-23 06:33N 47°39' W 122°20'0 0.6
2015-Mar-23 06:32N 47°39' W 122°20'0 0.0
2015-Mar-23 06:02N 47°39' W 122°20'0 0.0
2015-Mar-23 05:33N 47°39' W 122°20'0 0.0
2015-Mar-23 04:33N 47°39' W 122°20'0 0.0
2015-Mar-23 04:32N 47°39' W 122°20'0 0.0
2015-Mar-23 03:33N 47°39' W 122°20'0 0.0
2015-Mar-23 03:32N 47°39' W 122°20'0 0.0
2015-Mar-23 02:34N 47°39' W 122°20'0 0.0
2015-Mar-23 02:32N 47°39' W 122°20'0 0.0
2015-Mar-23 01:34N 47°39' W 122°20'0 0.0
2015-Mar-23 01:32N 47°39' W 122°20'0 0.0
2015-Mar-23 00:33N 47°39' W 122°20'0 0.0
2015-Mar-23 00:31N 47°39' W 122°20'0 0.0
2015-Mar-22 23:34N 47°39' W 122°20'0 0.0
2015-Mar-22 23:31N 47°39' W 122°20'0 0.0
2015-Mar-22 22:34N 47°39' W 122°20'0 0.0
2015-Mar-22 22:31N 47°39' W 122°20'0 0.0
2015-Mar-22 21:34N 47°39' W 122°20'0 0.0
2015-Mar-22 21:31N 47°39' W 122°20'0 0.0
2015-Mar-22 20:34N 47°39' W 122°20'0 0.1
2015-Mar-22 20:31N 47°39' W 122°20'0 0.0
2015-Mar-22 19:33N 47°39' W 122°20'0 0.0
2015-Mar-22 19:31N 47°39' W 122°20'0 0.0
2015-Mar-22 18:33N 47°39' W 122°20'0 0.0
2015-Mar-22 18:31N 47°39' W 122°20'0 0.0
2015-Mar-22 17:34N 47°39' W 122°20'0 0.0
2015-Mar-22 17:31N 47°39' W 122°20'0 0.0
2015-Mar-22 16:34N 47°39' W 122°20'0 0.0
2015-Mar-22 16:30N 47°39' W 122°20'0 0.0
2015-Mar-22 15:33N 47°39' W 122°20'0 0.0
2015-Mar-22 15:30N 47°39' W 122°20'0 0.0
2015-Mar-22 14:33N 47°39' W 122°20'0 0.0
2015-Mar-22 14:30N 47°39' W 122°20'0 0.0
2015-Mar-22 13:34N 47°39' W 122°20'0 0.0
2015-Mar-22 13:30N 47°39' W 122°20'0 0.0
2015-Mar-22 12:34N 47°39' W 122°20'0 0.0
2015-Mar-22 12:30N 47°39' W 122°20'0 0.0
2015-Mar-22 11:33N 47°39' W 122°20'0 0.0
2015-Mar-22 11:30N 47°39' W 122°20'0 0.0
2015-Mar-22 10:34N 47°39' W 122°20'0 0.0
2015-Mar-22 10:18N 47°39' W 122°20'0 0.0
2015-Mar-22 09:33N 47°39' W 122°20'0 0.0
2015-Mar-22 09:29N 47°39' W 122°20'0 0.0
2015-Mar-22 08:34N 47°39' W 122°20'0 0.0
2015-Mar-22 08:29N 47°39' W 122°20'0 0.0
2015-Mar-22 07:34N 47°39' W 122°20'0 0.0
2015-Mar-22 07:28N 47°39' W 122°20'0 0.0
2015-Mar-22 06:34N 47°39' W 122°20'0 0.1
2015-Mar-22 06:29N 47°39' W 122°20'0 0.0
2015-Mar-22 06:09N 47°39' W 122°20'0 0.0
2015-Mar-22 05:33N 47°39' W 122°20'0 0.0
2015-Mar-22 04:34N 47°39' W 122°20'0 0.0
2015-Mar-22 04:29N 47°39' W 122°20'0 0.0
2015-Mar-22 03:34N 47°39' W 122°20'0 0.0
2015-Mar-22 03:29N 47°39' W 122°20'0 0.0
2015-Mar-22 02:34N 47°39' W 122°20'0 0.0
2015-Mar-22 02:33N 47°39' W 122°20'0 0.0
2015-Mar-22 01:33N 47°39' W 122°20'0 0.0
2015-Mar-22 01:32N 47°39' W 122°20'0 0.0
2015-Mar-22 00:33N 47°39' W 122°20'0 0.0
2015-Mar-22 00:32N 47°39' W 122°20'0 0.0
2015-Mar-21 23:34N 47°39' W 122°20'0 0.0
2015-Mar-21 23:32N 47°39' W 122°20'0 0.0
2015-Mar-21 22:32N 47°39' W 122°20'0 0.0
2015-Mar-21 22:32N 47°39' W 122°20'0 0.0
2015-Mar-21 21:33N 47°39' W 122°20'0 0.0
2015-Mar-21 21:32N 47°39' W 122°20'0 0.0
2015-Mar-21 20:34N 47°39' W 122°20'0 0.0
2015-Mar-21 20:32N 47°39' W 122°20'0 0.0
2015-Mar-21 19:34N 47°39' W 122°20'0 0.0
2015-Mar-21 19:32N 47°39' W 122°20'0 0.0
2015-Mar-21 18:34N 47°39' W 122°20'0 0.0
2015-Mar-21 18:32N 47°39' W 122°20'0 0.0
2015-Mar-21 17:26N 47°39' W 122°20'0 0.0
2015-Mar-21 17:26N 47°39' W 122°20'0 0.0
2015-Mar-21 16:33N 47°39' W 122°20'0 0.0
2015-Mar-21 16:31N 47°39' W 122°20'0 0.0
2015-Mar-21 15:34N 47°39' W 122°20'0 0.0
2015-Mar-21 15:31N 47°39' W 122°20'0 0.0
2015-Mar-21 14:33N 47°39' W 122°20'0 0.0
2015-Mar-21 14:30N 47°39' W 122°20'0 0.0
2015-Mar-21 13:34N 47°39' W 122°20'0 0.0
2015-Mar-21 13:30N 47°39' W 122°20'0 0.0
2015-Mar-21 12:34N 47°39' W 122°20'0 0.0
2015-Mar-21 12:30N 47°39' W 122°20'0 0.0
2015-Mar-21 11:34N 47°39' W 122°20'0 0.0
2015-Mar-21 11:30N 47°39' W 122°20'0 0.0
2015-Mar-21 10:34N 47°39' W 122°20'0 0.0
2015-Mar-21 10:30N 47°39' W 122°20'0 0.0
2015-Mar-21 09:29N 47°39' W 122°20'0 0.0
2015-Mar-21 09:03N 47°39' W 122°20'0 0.0
2015-Mar-21 08:34N 47°39' W 122°20'0 0.0
2015-Mar-21 08:33N 47°39' W 122°20'0 0.0
2015-Mar-21 07:33N 47°39' W 122°20'0 0.0
2015-Mar-21 07:33N 47°39' W 122°20'0 0.0
2015-Mar-21 06:33N 47°39' W 122°20'0 0.0
2015-Mar-21 06:32N 47°39' W 122°20'0 0.0
2015-Mar-21 06:13N 47°39' W 122°20'0 0.0
2015-Mar-21 05:33N 47°39' W 122°20'0 0.0
2015-Mar-21 04:34N 47°39' W 122°20'0 0.0
2015-Mar-21 04:32N 47°39' W 122°20'0 0.0
2015-Mar-21 03:34N 47°39' W 122°20'0 0.0
2015-Mar-21 03:32N 47°39' W 122°20'0 0.0
2015-Mar-21 02:34N 47°39' W 122°20'0 0.0
2015-Mar-21 02:32N 47°39' W 122°20'4 3.7
2015-Mar-21 01:32N 47°38' W 122°15'0 0.0
2015-Mar-21 01:31N 47°38' W 122°15'0 0.1
2015-Mar-21 00:27N 47°38' W 122°15'0 1.9
2015-Mar-21 00:16N 47°39' W 122°15'1 1.1
2015-Mar-20 23:33N 47°39' W 122°16'0 0.6
2015-Mar-20 23:25N 47°39' W 122°16'1 1.0
2015-Mar-20 22:33N 47°38' W 122°15'0 0.9
2015-Mar-20 22:31N 47°38' W 122°15'0 0.0
2015-Mar-20 21:25N 47°38' W 122°15'0 0.0
2015-Mar-20 21:25N 47°38' W 122°15'0 0.0
2015-Mar-20 20:33N 47°38' W 122°15'0 0.0
2015-Mar-20 20:19N 47°38' W 122°15'0 0.0
2015-Mar-20 19:33N 47°38' W 122°15'0 0.0
2015-Mar-20 19:29N 47°38' W 122°15'0 0.0
2015-Mar-20 18:33N 47°38' W 122°15'0 0.0
2015-Mar-20 17:44N 47°38' W 122°15'0 0.0
2015-Mar-20 17:33N 47°38' W 122°15'0 0.1
2015-Mar-20 17:29N 47°38' W 122°15'0 0.1
2015-Mar-20 16:33N 47°38' W 122°15'0 2.0
2015-Mar-20 16:29N 47°38' W 122°15'0 0.1
2015-Mar-20 15:32N 47°39' W 122°15'0 1.3
2015-Mar-20 15:29N 47°38' W 122°15'0 0.3
2015-Mar-20 14:33N 47°39' W 122°15'0 0.2
2015-Mar-20 14:29N 47°39' W 122°15'0 0.3
2015-Mar-20 13:31N 47°38' W 122°15'0 1.0
2015-Mar-20 13:13N 47°39' W 122°15'1 0.9
2015-Mar-20 12:33N 47°39' W 122°16'0 0.0
2015-Mar-20 12:33N 47°39' W 122°16'2 2.5
2015-Mar-20 11:33N 47°39' W 122°20'0 0.0
2015-Mar-20 11:33N 47°39' W 122°20'1 0.6
2015-Mar-20 10:33N 47°39' W 122°20'0 0.0
2015-Mar-20 10:33N 47°39' W 122°20'0 0.0
2015-Mar-20 09:33N 47°39' W 122°20'0 0.0
2015-Mar-20 09:33N 47°39' W 122°20'0 0.0
2015-Mar-20 08:33N 47°39' W 122°20'0 0.0
2015-Mar-20 08:32N 47°39' W 122°20'0 0.0
2015-Mar-20 07:27N 47°39' W 122°20'0 0.0
2015-Mar-20 07:23N 47°39' W 122°20'0 0.0
2015-Mar-20 06:33N 47°39' W 122°20'0 0.0
2015-Mar-20 06:32N 47°39' W 122°20'0 0.0
2015-Mar-20 06:13N 47°39' W 122°20'0 0.0
2015-Mar-20 05:32N 47°39' W 122°20'0 0.0
2015-Mar-20 04:33N 47°39' W 122°20'0 0.0
2015-Mar-20 04:33N 47°39' W 122°20'0 0.0
2015-Mar-20 02:40N 47°39' W 122°20'0 0.0
2015-Mar-20 02:33N 47°39' W 122°20'0 0.0
2015-Mar-20 02:30N 47°39' W 122°20'0 0.0
2015-Mar-20 01:12N 47°39' W 122°20'0 0.0
2015-Mar-20 01:08N 47°39' W 122°20'0 0.0
2015-Mar-20 00:33N 47°39' W 122°20'0 0.0
2015-Mar-20 00:33N 47°39' W 122°20'0 0.0
2015-Mar-19 23:32N 47°39' W 122°20'0 0.0
2015-Mar-19 23:32N 47°39' W 122°20'0 0.0
2015-Mar-19 22:33N 47°39' W 122°20'0 0.0
2015-Mar-19 22:33N 47°39' W 122°20'0 0.0
2015-Mar-19 21:33N 47°39' W 122°20'0 0.0
2015-Mar-19 21:33N 47°39' W 122°20'0 0.0
2015-Mar-19 20:33N 47°39' W 122°20'0 0.0
2015-Mar-19 20:33N 47°39' W 122°20'0 0.0
2015-Mar-19 19:33N 47°39' W 122°20'0 0.0
2015-Mar-19 19:33N 47°39' W 122°20'0 0.1
2015-Mar-19 18:33N 47°39' W 122°20'0 0.0
2015-Mar-19 18:32N 47°39' W 122°20'0 0.3
2015-Mar-19 17:34N 47°39' W 122°20'0 5.6
2015-Mar-19 17:32N 47°39' W 122°20'3 3.3
2015-Mar-19 16:32N 47°38' W 122°15'0 0.2
2015-Mar-19 16:16N 47°38' W 122°15'0 0.2
2015-Mar-19 15:34N 47°38' W 122°15'0 0.0
2015-Mar-19 15:16N 47°38' W 122°15'0 0.0
2015-Mar-19 14:34N 47°38' W 122°15'0 0.0
2015-Mar-19 14:30N 47°38' W 122°15'1 0.6
2015-Mar-19 13:33N 47°38' W 122°15'0 0.0
2015-Mar-19 13:20N 47°38' W 122°15'0 0.3
2015-Mar-19 12:33N 47°39' W 122°15'0 1.3
2015-Mar-19 12:30N 47°39' W 122°15'3 3.2
2015-Mar-19 11:33N 47°39' W 122°20'0 4.7
2015-Mar-19 11:30N 47°39' W 122°20'0 0.3
2015-Mar-19 10:33N 47°39' W 122°20'0 0.0
2015-Mar-19 10:30N 47°39' W 122°20'0 0.0
2015-Mar-19 09:30N 47°39' W 122°20'0 0.0
2015-Mar-19 09:14N 47°39' W 122°20'0 0.0
2015-Mar-19 08:34N 47°39' W 122°20'0 0.0
2015-Mar-19 08:29N 47°39' W 122°20'0 0.0
2015-Mar-19 07:34N 47°39' W 122°20'0 0.0
2015-Mar-19 07:24N 47°39' W 122°20'0 0.0
2015-Mar-19 06:34N 47°39' W 122°20'0 0.0
2015-Mar-19 06:29N 47°39' W 122°20'0 0.0
2015-Mar-19 06:04N 47°39' W 122°20'0 0.0
2015-Mar-19 05:34N 47°39' W 122°20'0 0.0
2015-Mar-19 04:33N 47°39' W 122°20'0 0.0
2015-Mar-19 04:29N 47°39' W 122°20'0 0.0
2015-Mar-19 03:33N 47°39' W 122°20'0 0.0
2015-Mar-19 03:29N 47°39' W 122°20'0 0.0
2015-Mar-19 02:34N 47°39' W 122°20'0 0.0
2015-Mar-19 02:29N 47°39' W 122°20'0 0.0
2015-Mar-19 01:33N 47°39' W 122°20'0 0.0
2015-Mar-19 01:29N 47°39' W 122°20'0 0.0
2015-Mar-19 00:29N 47°39' W 122°20'0 0.0
2015-Mar-19 00:28N 47°39' W 122°20'0 0.0
2015-Mar-18 23:33N 47°39' W 122°20'0 0.0
2015-Mar-18 23:33N 47°39' W 122°20'0 0.0
2015-Mar-18 22:32N 47°39' W 122°20'0 0.1
2015-Mar-18 22:28N 47°39' W 122°20'0 0.0
2015-Mar-18 21:33N 47°39' W 122°20'0 0.5
2015-Mar-18 21:33N 47°39' W 122°20'0 0.0
2015-Mar-18 20:32N 47°39' W 122°20'0 0.0
2015-Mar-18 20:28N 47°39' W 122°20'0 0.0
2015-Mar-18 19:24N 47°39' W 122°20'0 0.0
2015-Mar-18 19:22N 47°39' W 122°20'0 0.0
2015-Mar-18 18:33N 47°39' W 122°20'0 0.0
2015-Mar-18 18:32N 47°39' W 122°20'0 0.0
2015-Mar-18 17:34N 47°39' W 122°20'0 0.0
2015-Mar-18 17:32N 47°39' W 122°20'0 0.0
2015-Mar-18 16:33N 47°39' W 122°20'0 0.0
2015-Mar-18 16:31N 47°39' W 122°20'0 0.0
2015-Mar-18 15:34N 47°39' W 122°20'0 0.0
2015-Mar-18 15:31N 47°39' W 122°20'0 0.0
2015-Mar-18 14:33N 47°39' W 122°20'0 0.0
2015-Mar-18 14:31N 47°39' W 122°20'0 0.0
2015-Mar-18 12:17N 47°39' W 122°20'0 0.0
2015-Mar-18 12:16N 47°39' W 122°20'0 0.0
2015-Mar-18 11:34N 47°39' W 122°20'0 0.0
2015-Mar-18 11:31N 47°39' W 122°20'0 0.0
2015-Mar-18 10:34N 47°39' W 122°20'  
Track history (hours):
 
Tides and Currents Weather Stations Pressure Air Temp Water Temp Dewpoint Dewpoint Depression Visibility Wind Speed Wind Dir Waves Ship Positions

Solana

Owner: TAURUS MARINE, SAN FRANCISCO, CA. More information available from US FCC via Universal Licensing System and Coast Guard Vessel Documentation Center.

Last reported at 2015-Mar-28 10:33 UTC. Time now 2015-Mar-28 11:05 UTC.
Position N 47°39' W 122°20'.

Type: Towing. MMSI: 366969740.

Date/timePositionNaut miles runAvg speedWind from/ knotsBaromVisibWave heightAir tempDewpointWater temp
2015-Mar-28 10:33N 47°39' W 122°20'0 0.0
2015-Mar-28 10:30N 47°39' W 122°20'0 0.0
2015-Mar-28 09:33N 47°39' W 122°20'0 0.0
2015-Mar-28 09:30N 47°39' W 122°20'0 0.0
2015-Mar-28 08:33N 47°39' W 122°20'0 0.0
2015-Mar-28 08:30N 47°39' W 122°20'0 0.0
2015-Mar-28 07:33N 47°39' W 122°20'0 0.0
2015-Mar-28 07:30N 47°39' W 122°20'0 0.0
2015-Mar-28 06:44N 47°39' W 122°20'0 0.0
2015-Mar-28 06:33N 47°39' W 122°20'0 0.0
2015-Mar-28 05:27N 47°39' W 122°20'0 0.0
2015-Mar-28 04:38N 47°39' W 122°20'0 0.0
2015-Mar-28 04:33N 47°39' W 122°20'0 0.0
2015-Mar-28 04:33N 47°39' W 122°20'0 0.0
2015-Mar-28 03:33N 47°39' W 122°20'0 0.0
2015-Mar-28 03:32N 47°39' W 122°20'0 0.0
2015-Mar-28 02:33N 47°39' W 122°20'0 0.0
2015-Mar-28 02:32N 47°39' W 122°20'0 0.0
2015-Mar-28 01:33N 47°39' W 122°20'0 0.0
2015-Mar-28 01:32N 47°39' W 122°20'0 0.0
2015-Mar-28 00:33N 47°39' W 122°20'0 0.0
2015-Mar-28 00:32N 47°39' W 122°20'3 2.7
2015-Mar-27 23:33N 47°39' W 122°16'0 3.1
2015-Mar-27 23:32N 47°39' W 122°16'1 1.2
2015-Mar-27 22:32N 47°38' W 122°15'0 0.0
2015-Mar-27 22:32N 47°38' W 122°15'0 0.2
2015-Mar-27 21:33N 47°38' W 122°15'0 0.0
2015-Mar-27 21:32N 47°38' W 122°15'1 1.0
2015-Mar-27 20:31N 47°39' W 122°16'0 0.0
2015-Mar-27 19:40N 47°39' W 122°16'0 0.0
2015-Mar-27 19:30N 47°39' W 122°16'1 3.0
2015-Mar-27 19:03N 47°40' W 122°15'4 8.3
2015-Mar-27 18:33N 47°44' W 122°16'1 6.0
2015-Mar-27 18:28N 47°45' W 122°16'2 2.3
2015-Mar-27 17:33N 47°42' W 122°16'4 8.0
2015-Mar-27 17:05N 47°39' W 122°15'0 0.5
2015-Mar-27 16:33N 47°39' W 122°15'0 0.9
2015-Mar-27 16:30N 47°39' W 122°15'0 0.5
2015-Mar-27 15:33N 47°39' W 122°16'0 0.3
2015-Mar-27 15:24N 47°39' W 122°16'2 2.7
2015-Mar-27 14:33N 47°41' W 122°14'0 8.9
2015-Mar-27 14:30N 47°41' W 122°14'4 4.5
2015-Mar-27 13:33N 47°45' W 122°16'0 3.7
2015-Mar-27 13:30N 47°45' W 122°16'0 0.4
2015-Mar-27 12:31N 47°45' W 122°15'0 0.0
2015-Mar-27 12:29N 47°45' W 122°15'2 2.4
2015-Mar-27 11:34N 47°43' W 122°16'0 6.7
2015-Mar-27 11:29N 47°43' W 122°16'4 4.4
2015-Mar-27 10:33N 47°39' W 122°16'0 5.9
2015-Mar-27 10:30N 47°39' W 122°16'3 2.9
2015-Mar-27 09:33N 47°39' W 122°20'0 0.0
2015-Mar-27 09:30N 47°39' W 122°20'0 0.0
2015-Mar-27 08:33N 47°39' W 122°20'0 0.0
2015-Mar-27 08:30N 47°39' W 122°20'0 0.0
2015-Mar-27 07:33N 47°39' W 122°20'0 0.0
2015-Mar-27 07:30N 47°39' W 122°20'0 0.0
2015-Mar-27 06:31N 47°39' W 122°20'0 0.0
2015-Mar-27 05:31N 47°39' W 122°20'0 0.0
2015-Mar-27 05:15N 47°39' W 122°20'0 0.0
2015-Mar-27 04:33N 47°39' W 122°20'0 0.0
2015-Mar-27 04:30N 47°39' W 122°20'0 0.0
2015-Mar-27 03:33N 47°39' W 122°20'0 0.0
2015-Mar-27 03:30N 47°39' W 122°20'0 0.0
2015-Mar-27 02:33N 47°39' W 122°20'0 0.1
2015-Mar-27 02:30N 47°39' W 122°20'0 0.0
2015-Mar-27 01:33N 47°39' W 122°20'0 0.0
2015-Mar-27 01:30N 47°39' W 122°20'0 0.0
2015-Mar-27 00:33N 47°39' W 122°20'0 0.0
2015-Mar-27 00:30N 47°39' W 122°20'0 0.0
2015-Mar-26 23:34N 47°39' W 122°20'0 0.0
2015-Mar-26 23:30N 47°39' W 122°20'0 0.0
2015-Mar-26 22:33N 47°39' W 122°20'0 0.0
2015-Mar-26 22:29N 47°39' W 122°20'0 0.0
2015-Mar-26 21:33N 47°39' W 122°20'0 0.0
2015-Mar-26 21:29N 47°39' W 122°20'0 0.0
2015-Mar-26 20:33N 47°39' W 122°20'0 0.0
2015-Mar-26 20:29N 47°39' W 122°20'0 0.0
2015-Mar-26 19:32N 47°39' W 122°20'0 0.0
2015-Mar-26 19:22N 47°39' W 122°20'0 0.0
2015-Mar-26 18:29N 47°39' W 122°20'0 0.0
2015-Mar-26 17:39N 47°39' W 122°20'0 0.1
2015-Mar-26 17:33N 47°39' W 122°20'0 0.0
2015-Mar-26 17:13N 47°39' W 122°20'0 0.0
2015-Mar-26 16:08N 47°39' W 122°20'0 0.0
2015-Mar-26 15:46N 47°39' W 122°20'0 0.0
2015-Mar-26 15:33N 47°39' W 122°20'0 0.0
2015-Mar-26 15:31N 47°39' W 122°20'0 0.0
2015-Mar-26 14:33N 47°39' W 122°20'0 0.0
2015-Mar-26 14:31N 47°39' W 122°20'0 0.0
2015-Mar-26 13:33N 47°39' W 122°20'0 0.0
2015-Mar-26 13:31N 47°39' W 122°20'0 0.0
2015-Mar-26 12:33N 47°39' W 122°20'0 0.0
2015-Mar-26 12:31N 47°39' W 122°20'0 0.0
2015-Mar-26 11:33N 47°39' W 122°20'0 0.0
2015-Mar-26 11:31N 47°39' W 122°20'0 0.0
2015-Mar-26 10:33N 47°39' W 122°20'0 0.0
2015-Mar-26 10:31N 47°39' W 122°20'0 0.0
2015-Mar-26 09:33N 47°39' W 122°20'0 0.0
2015-Mar-26 09:31N 47°39' W 122°20'0 0.0
2015-Mar-26 08:33N 47°39' W 122°20'0 0.0
2015-Mar-26 08:30N 47°39' W 122°20'0 0.0
2015-Mar-26 07:33N 47°39' W 122°20'0 0.0
2015-Mar-26 07:30N 47°39' W 122°20'0 0.0
2015-Mar-26 06:33N 47°39' W 122°20'0 0.0
2015-Mar-26 06:30N 47°39' W 122°20'0 0.0
2015-Mar-26 06:10N 47°39' W 122°20'0 0.0
2015-Mar-26 05:34N 47°39' W 122°20'0 0.0
2015-Mar-26 04:33N 47°39' W 122°20'0 0.0
2015-Mar-26 04:30N 47°39' W 122°20'0 0.0
2015-Mar-26 03:33N 47°39' W 122°20'0 0.0
2015-Mar-26 03:29N 47°39' W 122°20'0 0.0
2015-Mar-26 02:33N 47°39' W 122°20'0 0.0
2015-Mar-26 02:30N 47°39' W 122°20'0 0.0
2015-Mar-26 01:33N 47°39' W 122°20'0 0.1
2015-Mar-26 01:30N 47°39' W 122°20'0 0.0
2015-Mar-26 00:33N 47°39' W 122°20'0 0.0
2015-Mar-26 00:30N 47°39' W 122°20'0 0.0
2015-Mar-25 23:33N 47°39' W 122°20'0 0.0
2015-Mar-25 23:30N 47°39' W 122°20'0 0.0
2015-Mar-25 22:33N 47°39' W 122°20'0 0.0
2015-Mar-25 22:30N 47°39' W 122°20'0 0.0
2015-Mar-25 21:32N 47°39' W 122°20'0 0.0
2015-Mar-25 21:29N 47°39' W 122°20'0 0.0
2015-Mar-25 20:33N 47°39' W 122°20'0 0.0
2015-Mar-25 20:24N 47°39' W 122°20'0 0.0
2015-Mar-25 19:33N 47°39' W 122°20'0 0.0
2015-Mar-25 19:29N 47°39' W 122°20'0 0.0
2015-Mar-25 18:33N 47°39' W 122°20'0 0.0
2015-Mar-25 18:29N 47°39' W 122°20'0 0.0
2015-Mar-25 17:33N 47°39' W 122°20'0 0.1
2015-Mar-25 17:29N 47°39' W 122°20'0 0.0
2015-Mar-25 16:33N 47°39' W 122°20'0 0.1
2015-Mar-25 16:29N 47°39' W 122°20'0 0.0
2015-Mar-25 15:33N 47°39' W 122°20'0 0.0
2015-Mar-25 15:29N 47°39' W 122°20'0 0.0
2015-Mar-25 13:46N 47°39' W 122°20'0 0.0
2015-Mar-25 13:33N 47°39' W 122°20'0 0.0
2015-Mar-25 13:32N 47°39' W 122°20'0 0.0
2015-Mar-25 12:33N 47°39' W 122°20'0 0.0
2015-Mar-25 12:32N 47°39' W 122°20'0 0.0
2015-Mar-25 11:33N 47°39' W 122°20'0 0.0
2015-Mar-25 11:31N 47°39' W 122°20'0 0.0
2015-Mar-25 10:34N 47°39' W 122°20'0 0.0
2015-Mar-25 10:31N 47°39' W 122°20'0 0.0
2015-Mar-25 09:33N 47°39' W 122°20'0 0.0
2015-Mar-25 09:31N 47°39' W 122°20'0 0.0
2015-Mar-25 08:33N 47°39' W 122°20'0 0.0
2015-Mar-25 08:31N 47°39' W 122°20'0 0.0
2015-Mar-25 07:33N 47°39' W 122°20'0 0.0
2015-Mar-25 07:31N 47°39' W 122°20'0 0.0
2015-Mar-25 06:33N 47°39' W 122°20'0 0.0
2015-Mar-25 06:31N 47°39' W 122°20'0 0.0
2015-Mar-25 06:11N 47°39' W 122°20'0 0.0
2015-Mar-25 05:33N 47°39' W 122°20'0 0.0
2015-Mar-25 04:33N 47°39' W 122°20'0 0.0
2015-Mar-25 04:31N 47°39' W 122°20'0 0.0
2015-Mar-25 03:33N 47°39' W 122°20'0 0.0
2015-Mar-25 03:30N 47°39' W 122°20'0 0.0
2015-Mar-25 02:33N 47°39' W 122°20'0 0.0
2015-Mar-25 02:30N 47°39' W 122°20'0 0.0
2015-Mar-25 01:33N 47°39' W 122°20'0 0.0
2015-Mar-25 01:30N 47°39' W 122°20'0 0.0
2015-Mar-25 00:33N 47°39' W 122°20'0 0.0
2015-Mar-25 00:30N 47°39' W 122°20'0 0.0
2015-Mar-24 23:33N 47°39' W 122°20'0 0.0
2015-Mar-24 23:30N 47°39' W 122°20'0 0.0
2015-Mar-24 22:33N 47°39' W 122°20'0 0.0
2015-Mar-24 22:30N 47°39' W 122°20'0 0.0
2015-Mar-24 21:33N 47°39' W 122°20'0 0.0
2015-Mar-24 21:30N 47°39' W 122°20'0 0.0
2015-Mar-24 20:33N 47°39' W 122°20'0 0.0
2015-Mar-24 20:29N 47°39' W 122°20'0 0.0
2015-Mar-24 19:33N 47°39' W 122°20'0 0.0
2015-Mar-24 19:29N 47°39' W 122°20'0 0.0
2015-Mar-24 18:33N 47°39' W 122°20'0 0.0
2015-Mar-24 18:30N 47°39' W 122°20'0 0.0
2015-Mar-24 17:33N 47°39' W 122°20'0 0.1
2015-Mar-24 17:29N 47°39' W 122°20'0 0.0
2015-Mar-24 16:31N 47°39' W 122°20'0 0.0
2015-Mar-24 16:29N 47°39' W 122°20'0 0.0
2015-Mar-24 15:33N 47°39' W 122°20'0 0.0
2015-Mar-24 15:29N 47°39' W 122°20'0 0.0
2015-Mar-24 14:33N 47°39' W 122°20'0 0.0
2015-Mar-24 14:29N 47°39' W 122°20'0 0.0
2015-Mar-24 13:34N 47°39' W 122°20'0 0.0
2015-Mar-24 13:29N 47°39' W 122°20'0 0.0
2015-Mar-24 12:33N 47°39' W 122°20'0 0.0
2015-Mar-24 12:29N 47°39' W 122°20'0 0.0
2015-Mar-24 11:33N 47°39' W 122°20'0 0.0
2015-Mar-24 11:29N 47°39' W 122°20'0 0.0
2015-Mar-24 10:33N 47°39' W 122°20'0 0.0
2015-Mar-24 10:29N 47°39' W 122°20'0 0.0
2015-Mar-24 08:36N 47°39' W 122°20'0 0.0
2015-Mar-24 08:32N 47°39' W 122°20'0 0.0
2015-Mar-24 08:31N 47°39' W 122°20'0 0.0
2015-Mar-24 07:33N 47°39' W 122°20'0 0.0
2015-Mar-24 07:31N 47°39' W 122°20'0 0.0
2015-Mar-24 06:33N 47°39' W 122°20'0 0.2
2015-Mar-24 06:31N 47°39' W 122°20'0 0.0
2015-Mar-24 06:06N 47°39' W 122°20'0 0.0
2015-Mar-24 05:33N 47°39' W 122°20'0 0.0
2015-Mar-24 04:33N 47°39' W 122°20'0 0.0
2015-Mar-24 04:31N 47°39' W 122°20'0 0.0
2015-Mar-24 03:33N 47°39' W 122°20'0 0.0
2015-Mar-24 03:31N 47°39' W 122°20'0 0.0
2015-Mar-24 02:32N 47°39' W 122°20'0 0.0
2015-Mar-24 02:31N 47°39' W 122°20'0 0.0
2015-Mar-24 01:33N 47°39' W 122°20'0 0.0
2015-Mar-24 01:31N 47°39' W 122°20'0 0.0
2015-Mar-24 00:33N 47°39' W 122°20'0 0.0
2015-Mar-24 00:31N 47°39' W 122°20'0 0.0
2015-Mar-23 23:33N 47°39' W 122°20'0 0.0
2015-Mar-23 23:31N 47°39' W 122°20'0 0.0
2015-Mar-23 22:33N 47°39' W 122°20'0 0.0
2015-Mar-23 22:30N 47°39' W 122°20'3 3.3
2015-Mar-23 21:34N 47°39' W 122°16'0 0.3
2015-Mar-23 21:25N 47°39' W 122°16'0 0.0
2015-Mar-23 20:33N 47°38' W 122°16'0 0.0
2015-Mar-23 20:30N 47°38' W 122°16'0 0.1
2015-Mar-23 19:34N 47°39' W 122°16'0 0.3
2015-Mar-23 19:30N 47°39' W 122°16'0 0.1
2015-Mar-23 18:34N 47°39' W 122°16'0 0.5
2015-Mar-23 18:30N 47°39' W 122°16'0 0.4
2015-Mar-23 17:32N 47°39' W 122°16'0 0.1
2015-Mar-23 17:25N 47°39' W 122°16'0 0.5
2015-Mar-23 16:34N 47°39' W 122°16'0 0.1
2015-Mar-23 16:30N 47°39' W 122°16'0 0.0
2015-Mar-23 15:34N 47°38' W 122°16'0 0.1
2015-Mar-23 15:29N 47°38' W 122°16'1 0.8
2015-Mar-23 14:34N 47°38' W 122°15'0 0.1
2015-Mar-23 14:23N 47°38' W 122°15'1 0.8
2015-Mar-23 13:33N 47°39' W 122°16'0 1.4
2015-Mar-23 13:29N 47°39' W 122°16'1 0.6
2015-Mar-23 12:33N 47°38' W 122°15'0 0.6
2015-Mar-23 12:19N 47°38' W 122°15'3 4.4
2015-Mar-23 11:34N 47°39' W 122°20'0 3.6
2015-Mar-23 11:29N 47°39' W 122°20'0 0.1
2015-Mar-23 10:33N 47°39' W 122°20'0 0.0
2015-Mar-23 10:29N 47°39' W 122°20'0 0.0
2015-Mar-23 09:34N 47°39' W 122°20'0 0.0
2015-Mar-23 09:29N 47°39' W 122°20'0 0.0
2015-Mar-23 08:21N 47°39' W 122°20'0 0.0
2015-Mar-23 08:18N 47°39' W 122°20'0 0.0
2015-Mar-23 07:34N 47°39' W 122°20'0 0.0
2015-Mar-23 07:32N 47°39' W 122°20'0 0.0
2015-Mar-23 06:33N 47°39' W 122°20'0 0.6
2015-Mar-23 06:32N 47°39' W 122°20'0 0.0
2015-Mar-23 06:02N 47°39' W 122°20'0 0.0
2015-Mar-23 05:33N 47°39' W 122°20'0 0.0
2015-Mar-23 04:33N 47°39' W 122°20'0 0.0
2015-Mar-23 04:32N 47°39' W 122°20'0 0.0
2015-Mar-23 03:33N 47°39' W 122°20'0 0.0
2015-Mar-23 03:32N 47°39' W 122°20'0 0.0
2015-Mar-23 02:34N 47°39' W 122°20'0 0.0
2015-Mar-23 02:32N 47°39' W 122°20'0 0.0
2015-Mar-23 01:34N 47°39' W 122°20'0 0.0
2015-Mar-23 01:32N 47°39' W 122°20'0 0.0
2015-Mar-23 00:33N 47°39' W 122°20'0 0.0
2015-Mar-23 00:31N 47°39' W 122°20'0 0.0
2015-Mar-22 23:34N 47°39' W 122°20'0 0.0
2015-Mar-22 23:31N 47°39' W 122°20'0 0.0
2015-Mar-22 22:34N 47°39' W 122°20'0 0.0
2015-Mar-22 22:31N 47°39' W 122°20'0 0.0
2015-Mar-22 21:34N 47°39' W 122°20'0 0.0
2015-Mar-22 21:31N 47°39' W 122°20'0 0.0
2015-Mar-22 20:34N 47°39' W 122°20'0 0.1
2015-Mar-22 20:31N 47°39' W 122°20'0 0.0
2015-Mar-22 19:33N 47°39' W 122°20'0 0.0
2015-Mar-22 19:31N 47°39' W 122°20'0 0.0
2015-Mar-22 18:33N 47°39' W 122°20'0 0.0
2015-Mar-22 18:31N 47°39' W 122°20'0 0.0
2015-Mar-22 17:34N 47°39' W 122°20'0 0.0
2015-Mar-22 17:31N 47°39' W 122°20'0 0.0
2015-Mar-22 16:34N 47°39' W 122°20'0 0.0
2015-Mar-22 16:30N 47°39' W 122°20'0 0.0
2015-Mar-22 15:33N 47°39' W 122°20'0 0.0
2015-Mar-22 15:30N 47°39' W 122°20'0 0.0
2015-Mar-22 14:33N 47°39' W 122°20'0 0.0
2015-Mar-22 14:30N 47°39' W 122°20'0 0.0
2015-Mar-22 13:34N 47°39' W 122°20'0 0.0
2015-Mar-22 13:30N 47°39' W 122°20'0 0.0
2015-Mar-22 12:34N 47°39' W 122°20'0 0.0
2015-Mar-22 12:30N 47°39' W 122°20'0 0.0
2015-Mar-22 11:33N 47°39' W 122°20'0 0.0
2015-Mar-22 11:30N 47°39' W 122°20'0 0.0
2015-Mar-22 10:34N 47°39' W 122°20'0 0.0
2015-Mar-22 10:18N 47°39' W 122°20'0 0.0
2015-Mar-22 09:33N 47°39' W 122°20'0 0.0
2015-Mar-22 09:29N 47°39' W 122°20'0 0.0
2015-Mar-22 08:34N 47°39' W 122°20'0 0.0
2015-Mar-22 08:29N 47°39' W 122°20'0 0.0
2015-Mar-22 07:34N 47°39' W 122°20'0 0.0
2015-Mar-22 07:28N 47°39' W 122°20'0 0.0
2015-Mar-22 06:34N 47°39' W 122°20'0 0.1
2015-Mar-22 06:29N 47°39' W 122°20'0 0.0
2015-Mar-22 06:09N 47°39' W 122°20'0 0.0
2015-Mar-22 05:33N 47°39' W 122°20'0 0.0
2015-Mar-22 04:34N 47°39' W 122°20'0 0.0
2015-Mar-22 04:29N 47°39' W 122°20'0 0.0
2015-Mar-22 03:34N 47°39' W 122°20'0 0.0
2015-Mar-22 03:29N 47°39' W 122°20'0 0.0
2015-Mar-22 02:34N 47°39' W 122°20'0 0.0
2015-Mar-22 02:33N 47°39' W 122°20'0 0.0
2015-Mar-22 01:33N 47°39' W 122°20'0 0.0
2015-Mar-22 01:32N 47°39' W 122°20'0 0.0
2015-Mar-22 00:33N 47°39' W 122°20'0 0.0
2015-Mar-22 00:32N 47°39' W 122°20'0 0.0
2015-Mar-21 23:34N 47°39' W 122°20'0 0.0
2015-Mar-21 23:32N 47°39' W 122°20'0 0.0
2015-Mar-21 22:32N 47°39' W 122°20'0 0.0
2015-Mar-21 22:32N 47°39' W 122°20'0 0.0
2015-Mar-21 21:33N 47°39' W 122°20'0 0.0
2015-Mar-21 21:32N 47°39' W 122°20'0 0.0
2015-Mar-21 20:34N 47°39' W 122°20'0 0.0
2015-Mar-21 20:32N 47°39' W 122°20'0 0.0
2015-Mar-21 19:34N 47°39' W 122°20'0 0.0
2015-Mar-21 19:32N 47°39' W 122°20'0 0.0
2015-Mar-21 18:34N 47°39' W 122°20'0 0.0
2015-Mar-21 18:32N 47°39' W 122°20'0 0.0
2015-Mar-21 17:26N 47°39' W 122°20'0 0.0
2015-Mar-21 17:26N 47°39' W 122°20'0 0.0
2015-Mar-21 16:33N 47°39' W 122°20'0 0.0
2015-Mar-21 16:31N 47°39' W 122°20'0 0.0
2015-Mar-21 15:34N 47°39' W 122°20'0 0.0
2015-Mar-21 15:31N 47°39' W 122°20'0 0.0
2015-Mar-21 14:33N 47°39' W 122°20'0 0.0
2015-Mar-21 14:30N 47°39' W 122°20'0 0.0
2015-Mar-21 13:34N 47°39' W 122°20'0 0.0
2015-Mar-21 13:30N 47°39' W 122°20'0 0.0
2015-Mar-21 12:34N 47°39' W 122°20'0 0.0
2015-Mar-21 12:30N 47°39' W 122°20'0 0.0
2015-Mar-21 11:34N 47°39' W 122°20'0 0.0
2015-Mar-21 11:30N 47°39' W 122°20'0 0.0
2015-Mar-21 10:34N 47°39' W 122°20'0 0.0
2015-Mar-21 10:30N 47°39' W 122°20'0 0.0
2015-Mar-21 09:29N 47°39' W 122°20'0 0.0
2015-Mar-21 09:03N 47°39' W 122°20'0 0.0
2015-Mar-21 08:34N 47°39' W 122°20'0 0.0
2015-Mar-21 08:33N 47°39' W 122°20'0 0.0
2015-Mar-21 07:33N 47°39' W 122°20'0 0.0
2015-Mar-21 07:33N 47°39' W 122°20'0 0.0
2015-Mar-21 06:33N 47°39' W 122°20'0 0.0
2015-Mar-21 06:32N 47°39' W 122°20'0 0.0
2015-Mar-21 06:13N 47°39' W 122°20'0 0.0
2015-Mar-21 05:33N 47°39' W 122°20'0 0.0
2015-Mar-21 04:34N 47°39' W 122°20'0 0.0
2015-Mar-21 04:32N 47°39' W 122°20'0 0.0
2015-Mar-21 03:34N 47°39' W 122°20'0 0.0
2015-Mar-21 03:32N 47°39' W 122°20'0 0.0
2015-Mar-21 02:34N 47°39' W 122°20'0 0.0
2015-Mar-21 02:32N 47°39' W 122°20'4 3.7
2015-Mar-21 01:32N 47°38' W 122°15'0 0.0
2015-Mar-21 01:31N 47°38' W 122°15'0 0.1
2015-Mar-21 00:27N 47°38' W 122°15'0 1.9
2015-Mar-21 00:16N 47°39' W 122°15'1 1.1
2015-Mar-20 23:33N 47°39' W 122°16'0 0.6
2015-Mar-20 23:25N 47°39' W 122°16'1 1.0
2015-Mar-20 22:33N 47°38' W 122°15'0 0.9
2015-Mar-20 22:31N 47°38' W 122°15'0 0.0
2015-Mar-20 21:25N 47°38' W 122°15'0 0.0
2015-Mar-20 21:25N 47°38' W 122°15'0 0.0
2015-Mar-20 20:33N 47°38' W 122°15'0 0.0
2015-Mar-20 20:19N 47°38' W 122°15'0 0.0
2015-Mar-20 19:33N 47°38' W 122°15'0 0.0
2015-Mar-20 19:29N 47°38' W 122°15'0 0.0
2015-Mar-20 18:33N 47°38' W 122°15'0 0.0
2015-Mar-20 17:44N 47°38' W 122°15'0 0.0
2015-Mar-20 17:33N 47°38' W 122°15'0 0.1
2015-Mar-20 17:29N 47°38' W 122°15'0 0.1
2015-Mar-20 16:33N 47°38' W 122°15'0 2.0
2015-Mar-20 16:29N 47°38' W 122°15'0 0.1
2015-Mar-20 15:32N 47°39' W 122°15'0 1.3
2015-Mar-20 15:29N 47°38' W 122°15'0 0.3
2015-Mar-20 14:33N 47°39' W 122°15'0 0.2
2015-Mar-20 14:29N 47°39' W 122°15'0 0.3
2015-Mar-20 13:31N 47°38' W 122°15'0 1.0
2015-Mar-20 13:13N 47°39' W 122°15'1 0.9
2015-Mar-20 12:33N 47°39' W 122°16'0 0.0
2015-Mar-20 12:33N 47°39' W 122°16'2 2.5
2015-Mar-20 11:33N 47°39' W 122°20'0 0.0
2015-Mar-20 11:33N 47°39' W 122°20'1 0.6
2015-Mar-20 10:33N 47°39' W 122°20'0 0.0
2015-Mar-20 10:33N 47°39' W 122°20'0 0.0
2015-Mar-20 09:33N 47°39' W 122°20'0 0.0
2015-Mar-20 09:33N 47°39' W 122°20'0 0.0
2015-Mar-20 08:33N 47°39' W 122°20'0 0.0
2015-Mar-20 08:32N 47°39' W 122°20'0 0.0
2015-Mar-20 07:27N 47°39' W 122°20'0 0.0
2015-Mar-20 07:23N 47°39' W 122°20'0 0.0
2015-Mar-20 06:33N 47°39' W 122°20'0 0.0
2015-Mar-20 06:32N 47°39' W 122°20'0 0.0
2015-Mar-20 06:13N 47°39' W 122°20'0 0.0
2015-Mar-20 05:32N 47°39' W 122°20'0 0.0
2015-Mar-20 04:33N 47°39' W 122°20'0 0.0
2015-Mar-20 04:33N 47°39' W 122°20'0 0.0
2015-Mar-20 02:40N 47°39' W 122°20'0 0.0
2015-Mar-20 02:33N 47°39' W 122°20'0 0.0
2015-Mar-20 02:30N 47°39' W 122°20'0 0.0
2015-Mar-20 01:12N 47°39' W 122°20'0 0.0
2015-Mar-20 01:08N 47°39' W 122°20'0 0.0
2015-Mar-20 00:33N 47°39' W 122°20'0 0.0
2015-Mar-20 00:33N 47°39' W 122°20'0 0.0
2015-Mar-19 23:32N 47°39' W 122°20'0 0.0
2015-Mar-19 23:32N 47°39' W 122°20'0 0.0
2015-Mar-19 22:33N 47°39' W 122°20'0 0.0
2015-Mar-19 22:33N 47°39' W 122°20'0 0.0
2015-Mar-19 21:33N 47°39' W 122°20'0 0.0
2015-Mar-19 21:33N 47°39' W 122°20'0 0.0
2015-Mar-19 20:33N 47°39' W 122°20'0 0.0
2015-Mar-19 20:33N 47°39' W 122°20'0 0.0
2015-Mar-19 19:33N 47°39' W 122°20'0 0.0
2015-Mar-19 19:33N 47°39' W 122°20'0 0.1
2015-Mar-19 18:33N 47°39' W 122°20'0 0.0
2015-Mar-19 18:32N 47°39' W 122°20'0 0.3
2015-Mar-19 17:34N 47°39' W 122°20'0 5.6
2015-Mar-19 17:32N 47°39' W 122°20'3 3.3
2015-Mar-19 16:32N 47°38' W 122°15'0 0.2
2015-Mar-19 16:16N 47°38' W 122°15'0 0.2
2015-Mar-19 15:34N 47°38' W 122°15'0 0.0
2015-Mar-19 15:16N 47°38' W 122°15'0 0.0
2015-Mar-19 14:34N 47°38' W 122°15'0 0.0
2015-Mar-19 14:30N 47°38' W 122°15'1 0.6
2015-Mar-19 13:33N 47°38' W 122°15'0 0.0
2015-Mar-19 13:20N 47°38' W 122°15'0 0.3
2015-Mar-19 12:33N 47°39' W 122°15'0 1.3
2015-Mar-19 12:30N 47°39' W 122°15'3 3.2
2015-Mar-19 11:33N 47°39' W 122°20'0 4.7
2015-Mar-19 11:30N 47°39' W 122°20'0 0.3
2015-Mar-19 10:33N 47°39' W 122°20'0 0.0
2015-Mar-19 10:30N 47°39' W 122°20'0 0.0
2015-Mar-19 09:30N 47°39' W 122°20'0 0.0
2015-Mar-19 09:14N 47°39' W 122°20'0 0.0
2015-Mar-19 08:34N 47°39' W 122°20'0 0.0
2015-Mar-19 08:29N 47°39' W 122°20'0 0.0
2015-Mar-19 07:34N 47°39' W 122°20'0 0.0
2015-Mar-19 07:24N 47°39' W 122°20'0 0.0
2015-Mar-19 06:34N 47°39' W 122°20'0 0.0
2015-Mar-19 06:29N 47°39' W 122°20'0 0.0
2015-Mar-19 06:04N 47°39' W 122°20'0 0.0
2015-Mar-19 05:34N 47°39' W 122°20'0 0.0
2015-Mar-19 04:33N 47°39' W 122°20'0 0.0
2015-Mar-19 04:29N 47°39' W 122°20'0 0.0
2015-Mar-19 03:33N 47°39' W 122°20'0 0.0
2015-Mar-19 03:29N 47°39' W 122°20'0 0.0
2015-Mar-19 02:34N 47°39' W 122°20'0 0.0
2015-Mar-19 02:29N 47°39' W 122°20'0 0.0
2015-Mar-19 01:33N 47°39' W 122°20'0 0.0
2015-Mar-19 01:29N 47°39' W 122°20'0 0.0
2015-Mar-19 00:29N 47°39' W 122°20'0 0.0
2015-Mar-19 00:28N 47°39' W 122°20'0 0.0
2015-Mar-18 23:33N 47°39' W 122°20'0 0.0
2015-Mar-18 23:33N 47°39' W 122°20'0 0.0
2015-Mar-18 22:32N 47°39' W 122°20'0 0.1
2015-Mar-18 22:28N 47°39' W 122°20'0 0.0
2015-Mar-18 21:33N 47°39' W 122°20'0 0.5
2015-Mar-18 21:33N 47°39' W 122°20'0 0.0
2015-Mar-18 20:32N 47°39' W 122°20'0 0.0
2015-Mar-18 20:28N 47°39' W 122°20'0 0.0
2015-Mar-18 19:24N 47°39' W 122°20'0 0.0
2015-Mar-18 19:22N 47°39' W 122°20'0 0.0
2015-Mar-18 18:33N 47°39' W 122°20'0 0.0
2015-Mar-18 18:32N 47°39' W 122°20'0 0.0
2015-Mar-18 17:34N 47°39' W 122°20'0 0.0
2015-Mar-18 17:32N 47°39' W 122°20'0 0.0
2015-Mar-18 16:33N 47°39' W 122°20'0 0.0
2015-Mar-18 16:31N 47°39' W 122°20'0 0.0
2015-Mar-18 15:34N 47°39' W 122°20'0 0.0
2015-Mar-18 15:31N 47°39' W 122°20'0 0.0
2015-Mar-18 14:33N 47°39' W 122°20'0 0.0
2015-Mar-18 14:31N 47°39' W 122°20'0 0.0
2015-Mar-18 12:17N 47°39' W 122°20'0 0.0
2015-Mar-18 12:16N 47°39' W 122°20'0 0.0
2015-Mar-18 11:34N 47°39' W 122°20'0 0.0
2015-Mar-18 11:31N 47°39' W 122°20'0 0.0
2015-Mar-18 10:34N 47°39' W 122°20'  

Dump ship's entire track history